sensor_id;sensor_type;location;lat;lon;timestamp;P1;durP1;ratioP1;P2;durP2;ratioP2
54875;SDS011;40764;48.472;8.166;2023-02-22T00:05:37;5.88;;;3.20;;
54875;SDS011;40764;48.472;8.166;2023-02-22T00:11:38;3.63;;;2.20;;
54875;SDS011;40764;48.472;8.166;2023-02-22T00:17:45;8.10;;;2.90;;
54875;SDS011;40764;48.472;8.166;2023-02-22T00:23:46;4.43;;;2.47;;
54875;SDS011;40764;48.472;8.166;2023-02-22T00:29:48;8.57;;;3.15;;
54875;SDS011;40764;48.472;8.166;2023-02-22T00:35:48;6.93;;;2.70;;
54875;SDS011;40764;48.472;8.166;2023-02-22T00:41:49;7.10;;;3.07;;
54875;SDS011;40764;48.472;8.166;2023-02-22T00:47:49;8.48;;;3.03;;
54875;SDS011;40764;48.472;8.166;2023-02-22T00:53:50;6.50;;;2.70;;
54875;SDS011;40764;48.472;8.166;2023-02-22T00:59:51;10.40;;;3.17;;
54875;SDS011;40764;48.472;8.166;2023-02-22T01:05:51;8.43;;;2.97;;
54875;SDS011;40764;48.472;8.166;2023-02-22T01:11:52;6.00;;;2.88;;
54875;SDS011;40764;48.472;8.166;2023-02-22T01:17:57;10.07;;;3.47;;
54875;SDS011;40764;48.472;8.166;2023-02-22T01:23:58;8.93;;;3.70;;
54875;SDS011;40764;48.472;8.166;2023-02-22T01:29:58;11.68;;;2.80;;
54875;SDS011;40764;48.472;8.166;2023-02-22T01:35:59;3.80;;;2.37;;
54875;SDS011;40764;48.472;8.166;2023-02-22T01:41:59;8.38;;;3.20;;
54875;SDS011;40764;48.472;8.166;2023-02-22T01:48:01;5.33;;;2.73;;
54875;SDS011;40764;48.472;8.166;2023-02-22T01:54:20;8.00;;;2.63;;
54875;SDS011;40764;48.472;8.166;2023-02-22T02:00:41;14.18;;;5.13;;
54875;SDS011;40764;48.472;8.166;2023-02-22T02:06:43;6.20;;;3.05;;
54875;SDS011;40764;48.472;8.166;2023-02-22T02:12:45;8.63;;;2.87;;
54875;SDS011;40764;48.472;8.166;2023-02-22T02:18:48;7.05;;;3.00;;
54875;SDS011;40764;48.472;8.166;2023-02-22T02:37:31;5.32;;;2.60;;
54875;SDS011;40764;48.472;8.166;2023-02-22T02:43:45;8.52;;;2.38;;
54875;SDS011;40764;48.472;8.166;2023-02-22T02:50:06;7.55;;;2.55;;
54875;SDS011;40764;48.472;8.166;2023-02-22T02:56:10;7.45;;;2.47;;
54875;SDS011;40764;48.472;8.166;2023-02-22T03:08:43;7.85;;;2.10;;
54875;SDS011;40764;48.472;8.166;2023-02-22T03:14:56;4.55;;;2.70;;
54875;SDS011;40764;48.472;8.166;2023-02-22T03:27:29;4.68;;;2.13;;
54875;SDS011;40764;48.472;8.166;2023-02-22T03:33:38;7.80;;;2.97;;
54875;SDS011;40764;48.472;8.166;2023-02-22T03:39:41;6.93;;;2.20;;
54875;SDS011;40764;48.472;8.166;2023-02-22T03:45:43;8.63;;;2.40;;
54875;SDS011;40764;48.472;8.166;2023-02-22T03:51:46;6.57;;;2.70;;
54875;SDS011;40764;48.472;8.166;2023-02-22T03:57:47;12.23;;;2.47;;
54875;SDS011;40764;48.472;8.166;2023-02-22T04:03:50;3.63;;;2.25;;
54875;SDS011;40764;48.472;8.166;2023-02-22T04:09:51;4.63;;;2.28;;
54875;SDS011;40764;48.472;8.166;2023-02-22T04:15:51;7.90;;;2.20;;
54875;SDS011;40764;48.472;8.166;2023-02-22T04:21:52;6.60;;;2.97;;
54875;SDS011;40764;48.472;8.166;2023-02-22T04:27:52;7.22;;;2.80;;
54875;SDS011;40764;48.472;8.166;2023-02-22T04:33:52;5.33;;;2.03;;
54875;SDS011;40764;48.472;8.166;2023-02-22T04:39:53;4.97;;;2.15;;
54875;SDS011;40764;48.472;8.166;2023-02-22T04:45:53;6.18;;;2.65;;
54875;SDS011;40764;48.472;8.166;2023-02-22T04:51:53;4.65;;;2.85;;
54875;SDS011;40764;48.472;8.166;2023-02-22T04:57:54;7.60;;;2.50;;
54875;SDS011;40764;48.472;8.166;2023-02-22T05:03:55;17.35;;;4.72;;
54875;SDS011;40764;48.472;8.166;2023-02-22T05:09:55;7.35;;;2.88;;
54875;SDS011;40764;48.472;8.166;2023-02-22T05:15:56;10.20;;;2.65;;
54875;SDS011;40764;48.472;8.166;2023-02-22T05:21:56;7.60;;;2.50;;
54875;SDS011;40764;48.472;8.166;2023-02-22T05:27:58;7.57;;;2.88;;
54875;SDS011;40764;48.472;8.166;2023-02-22T05:34:02;9.20;;;2.90;;
54875;SDS011;40764;48.472;8.166;2023-02-22T05:40:02;9.85;;;2.40;;
54875;SDS011;40764;48.472;8.166;2023-02-22T05:46:03;6.60;;;2.90;;
54875;SDS011;40764;48.472;8.166;2023-02-22T05:52:04;8.30;;;3.67;;
54875;SDS011;40764;48.472;8.166;2023-02-22T05:58:04;15.70;;;2.60;;
54875;SDS011;40764;48.472;8.166;2023-02-22T06:04:04;5.03;;;2.70;;
54875;SDS011;40764;48.472;8.166;2023-02-22T06:10:05;5.87;;;2.50;;
54875;SDS011;40764;48.472;8.166;2023-02-22T06:16:05;6.97;;;3.10;;
54875;SDS011;40764;48.472;8.166;2023-02-22T06:22:07;3.50;;;2.40;;
54875;SDS011;40764;48.472;8.166;2023-02-22T06:28:14;3.97;;;2.20;;
54875;SDS011;40764;48.472;8.166;2023-02-22T06:34:15;9.80;;;7.05;;
54875;SDS011;40764;48.472;8.166;2023-02-22T06:40:15;30.07;;;12.30;;
54875;SDS011;40764;48.472;8.166;2023-02-22T06:46:15;30.25;;;14.45;;
54875;SDS011;40764;48.472;8.166;2023-02-22T06:52:16;11.50;;;6.43;;
54875;SDS011;40764;48.472;8.166;2023-02-22T06:58:16;13.13;;;4.57;;
54875;SDS011;40764;48.472;8.166;2023-02-22T07:04:17;6.47;;;3.28;;
54875;SDS011;40764;48.472;8.166;2023-02-22T07:10:21;5.50;;;3.20;;
54875;SDS011;40764;48.472;8.166;2023-02-22T07:16:24;7.40;;;3.13;;
54875;SDS011;40764;48.472;8.166;2023-02-22T07:22:24;6.53;;;3.17;;
54875;SDS011;40764;48.472;8.166;2023-02-22T07:28:25;21.60;;;8.85;;
54875;SDS011;40764;48.472;8.166;2023-02-22T07:34:25;10.18;;;5.50;;
54875;SDS011;40764;48.472;8.166;2023-02-22T07:40:25;12.60;;;5.20;;
54875;SDS011;40764;48.472;8.166;2023-02-22T07:46:26;11.40;;;3.93;;
54875;SDS011;40764;48.472;8.166;2023-02-22T07:52:26;5.32;;;2.42;;
54875;SDS011;40764;48.472;8.166;2023-02-22T07:58:28;4.32;;;2.78;;
54875;SDS011;40764;48.472;8.166;2023-02-22T08:04:29;7.10;;;3.35;;
54875;SDS011;40764;48.472;8.166;2023-02-22T08:10:29;9.40;;;3.20;;
54875;SDS011;40764;48.472;8.166;2023-02-22T08:16:30;12.93;;;3.47;;
54875;SDS011;40764;48.472;8.166;2023-02-22T08:22:30;4.90;;;2.50;;
54875;SDS011;40764;48.472;8.166;2023-02-22T08:28:31;8.10;;;3.00;;
54875;SDS011;40764;48.472;8.166;2023-02-22T08:34:31;17.87;;;7.10;;
54875;SDS011;40764;48.472;8.166;2023-02-22T08:40:33;10.93;;;5.40;;
54875;SDS011;40764;48.472;8.166;2023-02-22T08:46:35;13.50;;;5.10;;
54875;SDS011;40764;48.472;8.166;2023-02-22T08:52:36;15.98;;;6.30;;
54875;SDS011;40764;48.472;8.166;2023-02-22T08:58:36;15.80;;;8.27;;
54875;SDS011;40764;48.472;8.166;2023-02-22T09:04:37;24.17;;;11.20;;
54875;SDS011;40764;48.472;8.166;2023-02-22T09:10:37;9.63;;;5.55;;
54875;SDS011;40764;48.472;8.166;2023-02-22T09:16:37;6.40;;;3.53;;
54875;SDS011;40764;48.472;8.166;2023-02-22T09:22:38;7.67;;;2.90;;
54875;SDS011;40764;48.472;8.166;2023-02-22T09:28:39;4.23;;;2.13;;
54875;SDS011;40764;48.472;8.166;2023-02-22T09:34:39;6.82;;;2.70;;
54875;SDS011;40764;48.472;8.166;2023-02-22T09:40:46;7.93;;;4.90;;
54875;SDS011;40764;48.472;8.166;2023-02-22T09:46:50;4.85;;;3.30;;
54875;SDS011;40764;48.472;8.166;2023-02-22T09:59:04;9.20;;;4.05;;
54875;SDS011;40764;48.472;8.166;2023-02-22T10:05:10;12.05;;;5.15;;
54875;SDS011;40764;48.472;8.166;2023-02-22T10:11:23;81.70;;;27.05;;
54875;SDS011;40764;48.472;8.166;2023-02-22T10:17:45;98.25;;;38.35;;
54875;SDS011;40764;48.472;8.166;2023-02-22T10:30:23;40.92;;;16.88;;
54875;SDS011;40764;48.472;8.166;2023-02-22T10:36:42;29.02;;;10.85;;
54875;SDS011;40764;48.472;8.166;2023-02-22T10:42:46;21.83;;;7.75;;
54875;SDS011;40764;48.472;8.166;2023-02-22T10:48:49;20.87;;;9.47;;
54875;SDS011;40764;48.472;8.166;2023-02-22T10:54:54;40.53;;;15.43;;
54875;SDS011;40764;48.472;8.166;2023-02-22T11:00:57;34.80;;;11.00;;
54875;SDS011;40764;48.472;8.166;2023-02-22T11:12:57;32.70;;;9.20;;
54875;SDS011;40764;48.472;8.166;2023-02-22T11:18:59;19.48;;;9.15;;
54875;SDS011;40764;48.472;8.166;2023-02-22T11:25:16;22.70;;;10.52;;
54875;SDS011;40764;48.472;8.166;2023-02-22T11:31:20;25.88;;;13.88;;
54875;SDS011;40764;48.472;8.166;2023-02-22T11:37:28;28.70;;;13.02;;
54875;SDS011;40764;48.472;8.166;2023-02-22T11:43:34;24.10;;;12.90;;
54875;SDS011;40764;48.472;8.166;2023-02-22T11:49:36;30.97;;;12.23;;
54875;SDS011;40764;48.472;8.166;2023-02-22T11:55:48;33.25;;;13.30;;
54875;SDS011;40764;48.472;8.166;2023-02-22T12:02:04;26.58;;;13.30;;
54875;SDS011;40764;48.472;8.166;2023-02-22T12:14:56;28.38;;;13.07;;
54875;SDS011;40764;48.472;8.166;2023-02-22T12:21:01;27.17;;;12.30;;
54875;SDS011;40764;48.472;8.166;2023-02-22T12:27:07;26.38;;;14.43;;
54875;SDS011;40764;48.472;8.166;2023-02-22T12:33:14;34.75;;;14.73;;
54875;SDS011;40764;48.472;8.166;2023-02-22T12:46:05;25.67;;;13.45;;
54875;SDS011;40764;48.472;8.166;2023-02-22T12:58:29;23.77;;;11.05;;
54875;SDS011;40764;48.472;8.166;2023-02-22T13:04:31;22.83;;;12.30;;
54875;SDS011;40764;48.472;8.166;2023-02-22T13:23:32;28.55;;;14.05;;
54875;SDS011;40764;48.472;8.166;2023-02-22T13:29:40;25.48;;;14.65;;
54875;SDS011;40764;48.472;8.166;2023-02-22T13:55:25;23.67;;;14.75;;
54875;SDS011;40764;48.472;8.166;2023-02-22T14:01:35;25.65;;;14.90;;
54875;SDS011;40764;48.472;8.166;2023-02-22T14:07:48;28.40;;;15.57;;
54875;SDS011;40764;48.472;8.166;2023-02-22T14:26:32;33.22;;;14.30;;
54875;SDS011;40764;48.472;8.166;2023-02-22T14:32:34;28.42;;;15.05;;
54875;SDS011;40764;48.472;8.166;2023-02-22T14:38:35;32.37;;;16.90;;
54875;SDS011;40764;48.472;8.166;2023-02-22T14:44:50;37.33;;;17.33;;
54875;SDS011;40764;48.472;8.166;2023-02-22T14:50:56;45.50;;;18.80;;
54875;SDS011;40764;48.472;8.166;2023-02-22T15:03:52;43.40;;;16.77;;
54875;SDS011;40764;48.472;8.166;2023-02-22T15:22:25;28.00;;;16.85;;
54875;SDS011;40764;48.472;8.166;2023-02-22T15:28:29;28.08;;;15.93;;
54875;SDS011;40764;48.472;8.166;2023-02-22T15:34:30;32.53;;;15.03;;
54875;SDS011;40764;48.472;8.166;2023-02-22T15:40:32;62.30;;;19.27;;
54875;SDS011;40764;48.472;8.166;2023-02-22T15:52:34;42.70;;;17.58;;
54875;SDS011;40764;48.472;8.166;2023-02-22T15:58:34;31.23;;;15.15;;
54875;SDS011;40764;48.472;8.166;2023-02-22T16:04:35;32.65;;;15.35;;
54875;SDS011;40764;48.472;8.166;2023-02-22T16:10:36;27.40;;;15.63;;
54875;SDS011;40764;48.472;8.166;2023-02-22T16:16:37;36.57;;;15.87;;
54875;SDS011;40764;48.472;8.166;2023-02-22T16:22:44;30.77;;;15.40;;
54875;SDS011;40764;48.472;8.166;2023-02-22T16:28:53;36.15;;;17.77;;
54875;SDS011;40764;48.472;8.166;2023-02-22T16:34:53;45.70;;;20.98;;
54875;SDS011;40764;48.472;8.166;2023-02-22T16:40:54;39.70;;;21.20;;
54875;SDS011;40764;48.472;8.166;2023-02-22T16:46:57;35.28;;;16.90;;
54875;SDS011;40764;48.472;8.166;2023-02-22T16:52:58;32.83;;;17.02;;
54875;SDS011;40764;48.472;8.166;2023-02-22T16:59:00;32.30;;;14.10;;
54875;SDS011;40764;48.472;8.166;2023-02-22T17:05:05;21.98;;;12.80;;
54875;SDS011;40764;48.472;8.166;2023-02-22T17:11:07;27.88;;;13.18;;
54875;SDS011;40764;48.472;8.166;2023-02-22T17:17:14;29.35;;;15.07;;
54875;SDS011;40764;48.472;8.166;2023-02-22T17:23:16;29.15;;;14.85;;
54875;SDS011;40764;48.472;8.166;2023-02-22T17:29:17;24.52;;;13.43;;
54875;SDS011;40764;48.472;8.166;2023-02-22T17:35:18;30.83;;;14.80;;
54875;SDS011;40764;48.472;8.166;2023-02-22T17:41:22;32.63;;;15.68;;
54875;SDS011;40764;48.472;8.166;2023-02-22T17:47:22;28.98;;;15.38;;
54875;SDS011;40764;48.472;8.166;2023-02-22T17:53:22;36.03;;;20.50;;
54875;SDS011;40764;48.472;8.166;2023-02-22T17:59:24;38.42;;;17.48;;
54875;SDS011;40764;48.472;8.166;2023-02-22T18:05:26;32.15;;;15.52;;
54875;SDS011;40764;48.472;8.166;2023-02-22T18:11:28;54.88;;;27.00;;
54875;SDS011;40764;48.472;8.166;2023-02-22T18:17:32;51.97;;;24.98;;
54875;SDS011;40764;48.472;8.166;2023-02-22T18:23:32;48.63;;;26.13;;
54875;SDS011;40764;48.472;8.166;2023-02-22T18:29:33;53.73;;;28.63;;
54875;SDS011;40764;48.472;8.166;2023-02-22T18:35:33;41.70;;;21.80;;
54875;SDS011;40764;48.472;8.166;2023-02-22T18:41:34;52.40;;;28.10;;
54875;SDS011;40764;48.472;8.166;2023-02-22T18:47:42;42.13;;;23.60;;
54875;SDS011;40764;48.472;8.166;2023-02-22T18:53:43;38.45;;;20.23;;
54875;SDS011;40764;48.472;8.166;2023-02-22T18:59:46;45.75;;;21.55;;
54875;SDS011;40764;48.472;8.166;2023-02-22T19:05:47;87.88;;;36.38;;
54875;SDS011;40764;48.472;8.166;2023-02-22T19:11:49;54.80;;;26.50;;
54875;SDS011;40764;48.472;8.166;2023-02-22T19:17:49;40.30;;;20.33;;
54875;SDS011;40764;48.472;8.166;2023-02-22T19:23:50;52.67;;;24.73;;
54875;SDS011;40764;48.472;8.166;2023-02-22T19:29:50;47.17;;;23.37;;
54875;SDS011;40764;48.472;8.166;2023-02-22T19:41:58;110.90;;;42.90;;
54875;SDS011;40764;48.472;8.166;2023-02-22T19:47:59;51.28;;;24.10;;
54875;SDS011;40764;48.472;8.166;2023-02-22T19:54:07;44.03;;;21.50;;
54875;SDS011;40764;48.472;8.166;2023-02-22T20:00:27;62.65;;;29.35;;
54875;SDS011;40764;48.472;8.166;2023-02-22T20:06:44;58.42;;;26.30;;
54875;SDS011;40764;48.472;8.166;2023-02-22T20:12:47;42.90;;;22.55;;
54875;SDS011;40764;48.472;8.166;2023-02-22T20:18:48;59.35;;;30.77;;
54875;SDS011;40764;48.472;8.166;2023-02-22T20:24:49;64.43;;;29.43;;
54875;SDS011;40764;48.472;8.166;2023-02-22T20:30:51;61.37;;;31.17;;
54875;SDS011;40764;48.472;8.166;2023-02-22T20:36:52;60.10;;;27.30;;
54875;SDS011;40764;48.472;8.166;2023-02-22T20:42:53;51.75;;;29.05;;
54875;SDS011;40764;48.472;8.166;2023-02-22T20:48:55;45.17;;;24.33;;
54875;SDS011;40764;48.472;8.166;2023-02-22T21:01:07;42.35;;;23.50;;
54875;SDS011;40764;48.472;8.166;2023-02-22T21:07:10;46.47;;;23.90;;
54875;SDS011;40764;48.472;8.166;2023-02-22T21:13:11;49.63;;;25.10;;
54875;SDS011;40764;48.472;8.166;2023-02-22T21:19:12;45.30;;;22.60;;
54875;SDS011;40764;48.472;8.166;2023-02-22T21:25:22;39.63;;;22.60;;
54875;SDS011;40764;48.472;8.166;2023-02-22T21:31:27;49.63;;;25.13;;
54875;SDS011;40764;48.472;8.166;2023-02-22T21:37:40;45.85;;;23.15;;
54875;SDS011;40764;48.472;8.166;2023-02-22T21:49:48;46.13;;;24.52;;
54875;SDS011;40764;48.472;8.166;2023-02-22T21:55:50;53.58;;;28.90;;
54875;SDS011;40764;48.472;8.166;2023-02-22T22:01:53;71.72;;;31.13;;
54875;SDS011;40764;48.472;8.166;2023-02-22T22:07:54;63.20;;;29.88;;
54875;SDS011;40764;48.472;8.166;2023-02-22T22:13:55;58.95;;;30.90;;
54875;SDS011;40764;48.472;8.166;2023-02-22T22:19:59;56.45;;;29.85;;
54875;SDS011;40764;48.472;8.166;2023-02-22T22:26:00;53.72;;;26.63;;
54875;SDS011;40764;48.472;8.166;2023-02-22T22:32:01;57.78;;;27.88;;
54875;SDS011;40764;48.472;8.166;2023-02-22T22:38:02;53.90;;;26.83;;
54875;SDS011;40764;48.472;8.166;2023-02-22T22:44:02;56.80;;;27.42;;
54875;SDS011;40764;48.472;8.166;2023-02-22T22:50:06;58.78;;;30.70;;
54875;SDS011;40764;48.472;8.166;2023-02-22T22:56:10;54.90;;;28.50;;
54875;SDS011;40764;48.472;8.166;2023-02-22T23:02:16;62.25;;;31.23;;
54875;SDS011;40764;48.472;8.166;2023-02-22T23:08:19;65.88;;;33.03;;
54875;SDS011;40764;48.472;8.166;2023-02-22T23:14:28;71.28;;;31.55;;
54875;SDS011;40764;48.472;8.166;2023-02-22T23:20:32;66.93;;;31.27;;
54875;SDS011;40764;48.472;8.166;2023-02-22T23:26:39;65.15;;;31.30;;
54875;SDS011;40764;48.472;8.166;2023-02-22T23:32:44;61.78;;;28.95;;
54875;SDS011;40764;48.472;8.166;2023-02-22T23:38:45;51.33;;;25.98;;
54875;SDS011;40764;48.472;8.166;2023-02-22T23:44:46;57.33;;;28.57;;
54875;SDS011;40764;48.472;8.166;2023-02-22T23:51:04;61.30;;;28.83;;
54875;SDS011;40764;48.472;8.166;2023-02-22T23:57:08;55.95;;;29.27;;
